Time;durP1;ratioP1;P1;durP2;ratioP2;P2;SDS_P1;SDS_P2;PMS_P1;PMS_P2;Temp;Humidity;BMP_temperature;BMP_pressure;BME280_temperature;BME280_humidity;BME280_pressure;Samples;Min_cycle;Max_cycle;Signal;HPM_P1;HPM_P2
2022/08/13 00:00:04;;;;;;;;;8.33;8.33;;;;;;;;5072852;28;51947;-67
2022/08/13 00:02:29;;;;;;;;;6.33;6.33;;;;;;;;5073746;28;51065;-70
2022/08/13 00:05:00;;;;;;;;;8.33;8.33;;;;;;;;5075732;27;50938;-68
2022/08/13 00:07:26;;;;;;;;;10.00;10.00;;;;;;;;5075824;27;50936;-69
2022/08/13 00:09:52;;;;;;;;;7.67;7.67;;;;;;;;5073119;28;51847;-68
2022/08/13 00:15:09;;;;;;;;;9.00;8.00;;;;;;;;5072834;28;51228;-69
2022/08/13 00:17:34;;;;;;;;;9.00;8.67;;;;;;;;5073235;27;51105;-70
2022/08/13 00:19:59;;;;;;;;;6.00;6.00;;;;;;;;5073239;27;52219;-69
2022/08/13 00:22:26;;;;;;;;;7.33;7.00;;;;;;;;5074282;28;50983;-68
2022/08/13 00:24:52;;;;;;;;;8.67;8.00;;;;;;;;5074993;28;50984;-69
2022/08/13 00:27:17;;;;;;;;;10.00;10.00;;;;;;;;5074611;27;51333;-68
2022/08/13 00:29:43;;;;;;;;;8.00;8.00;;;;;;;;5071975;28;54081;-69
2022/08/13 00:32:08;;;;;;;;;7.33;7.33;;;;;;;;5077451;27;50992;-69
2022/08/13 00:34:34;;;;;;;;;9.67;8.67;;;;;;;;5076050;28;51110;-68
2022/08/13 00:36:59;;;;;;;;;7.00;7.00;;;;;;;;5073610;27;51001;-69
2022/08/13 00:39:25;;;;;;;;;9.00;9.00;;;;;;;;5073292;28;51026;-70
2022/08/13 00:41:51;;;;;;;;;6.00;6.00;;;;;;;;5072635;27;50970;-70
2022/08/13 00:44:17;;;;;;;;;8.00;6.00;;;;;;;;5075005;27;51127;-68
2022/08/13 00:46:42;;;;;;;;;8.33;8.33;;;;;;;;5074063;28;51282;-69
2022/08/13 00:49:09;;;;;;;;;9.00;9.00;;;;;;;;5071669;27;51187;-69
2022/08/13 00:51:35;;;;;;;;;6.00;6.00;;;;;;;;5072968;28;50879;-69
2022/08/13 00:54:03;;;;;;;;;7.00;7.00;;;;;;;;5075261;27;51306;-69
2022/08/13 00:56:35;;;;;;;;;7.67;7.67;;;;;;;;5072942;27;51105;-68
2022/08/13 00:59:09;;;;;;;;;8.67;8.67;;;;;;;;5071385;28;52324;-69
2022/08/13 01:01:35;;;;;;;;;9.00;9.00;;;;;;;;5063693;27;51149;-67
2022/08/13 01:04:02;;;;;;;;;7.00;6.50;;;;;;;;5075976;28;50969;-67
2022/08/13 01:06:27;;;;;;;;;7.00;6.33;;;;;;;;5078237;27;50925;-67
2022/08/13 01:08:53;;;;;;;;;8.00;8.00;;;;;;;;5075814;28;51153;-68
2022/08/13 01:11:20;;;;;;;;;9.00;8.00;;;;;;;;5078903;27;50940;-68
2022/08/13 01:13:45;;;;;;;;;8.00;8.00;;;;;;;;5076565;27;51038;-69
2022/08/13 01:16:13;;;;;;;;;8.67;8.33;;;;;;;;5076871;28;50957;-69
2022/08/13 01:18:41;;;;;;;;;7.00;7.00;;;;;;;;5076181;28;51935;-69
2022/08/13 01:21:08;;;;;;;;;8.00;7.00;;;;;;;;5075803;27;51250;-70
2022/08/13 01:23:33;;;;;;;;;7.00;7.00;;;;;;;;5076431;27;50967;-69
2022/08/13 01:25:59;;;;;;;;;7.67;7.00;;;;;;;;5076399;28;51079;-68
2022/08/13 01:28:27;;;;;;;;;6.00;6.00;;;;;;;;5075842;28;51783;-70
2022/08/13 01:30:53;;;;;;;;;8.33;8.00;;;;;;;;5074775;27;50906;-69
2022/08/13 01:33:18;;;;;;;;;7.00;7.00;;;;;;;;5076179;28;51058;-69
2022/08/13 01:35:47;;;;;;;;;8.00;8.00;;;;;;;;5074766;28;51264;-69
2022/08/13 01:38:14;;;;;;;;;3.00;2.67;;;;;;;;5075820;28;51070;-69
2022/08/13 01:40:39;;;;;;;;;8.00;8.00;;;;;;;;5075426;27;51162;-71
2022/08/13 01:43:05;;;;;;;;;8.00;8.00;;;;;;;;5075756;27;51271;-69
2022/08/13 01:45:31;;;;;;;;;7.67;7.00;;;;;;;;5074898;27;51138;-69
2022/08/13 01:50:41;;;;;;;;;8.33;8.33;;;;;;;;5073742;28;51029;-69
2022/08/13 01:53:08;;;;;;;;;8.00;8.00;;;;;;;;5076982;28;51027;-69
2022/08/13 01:55:39;;;;;;;;;7.00;7.00;;;;;;;;5075370;27;50926;-69
2022/08/13 01:58:09;;;;;;;;;6.33;6.00;;;;;;;;5074807;27;51160;-69
2022/08/13 02:00:36;;;;;;;;;8.25;8.25;;;;;;;;5076137;28;51077;-68
2022/08/13 02:03:04;;;;;;;;;6.00;6.00;;;;;;;;5077823;27;50984;-69
2022/08/13 02:05:29;;;;;;;;;6.33;6.33;;;;;;;;5078464;27;51300;-67
2022/08/13 02:07:55;;;;;;;;;8.00;8.00;;;;;;;;5077966;28;51430;-69
2022/08/13 02:10:21;;;;;;;;;7.33;7.33;;;;;;;;5076593;27;51005;-69
2022/08/13 02:12:47;;;;;;;;;6.00;5.33;;;;;;;;5075262;27;51141;-69
2022/08/13 02:15:15;;;;;;;;;7.00;7.00;;;;;;;;5074178;27;50828;-69
2022/08/13 02:17:41;;;;;;;;;8.33;8.33;;;;;;;;5075042;27;52054;-68
2022/08/13 02:20:07;;;;;;;;;8.75;7.50;;;;;;;;5077773;28;50943;-68
2022/08/13 02:22:33;;;;;;;;;8.00;8.00;;;;;;;;5078286;27;51116;-69
2022/08/13 02:25:01;;;;;;;;;7.00;7.00;;;;;;;;5074716;27;51206;-69
2022/08/13 02:27:26;;;;;;;;;7.00;7.00;;;;;;;;5066620;27;51931;-68
2022/08/13 02:29:53;;;;;;;;;6.00;6.00;;;;;;;;5063098;27;50914;-69
2022/08/13 02:32:18;;;;;;;;;8.00;8.00;;;;;;;;5075133;28;50959;-69
2022/08/13 02:34:45;;;;;;;;;6.67;6.67;;;;;;;;5075268;28;51163;-69
2022/08/13 02:37:11;;;;;;;;;7.00;7.00;;;;;;;;5074629;27;52310;-69
2022/08/13 02:39:37;;;;;;;;;8.00;8.00;;;;;;;;5067948;27;51119;-68
2022/08/13 02:42:02;;;;;;;;;7.67;7.00;;;;;;;;5074434;28;51071;-69
2022/08/13 02:44:28;;;;;;;;;8.00;8.00;;;;;;;;5073139;28;51431;-69
2022/08/13 02:46:53;;;;;;;;;8.33;8.33;;;;;;;;5074705;27;51971;-68
2022/08/13 02:49:21;;;;;;;;;8.00;8.00;;;;;;;;5074686;28;50993;-71
2022/08/13 02:51:47;;;;;;;;;9.67;8.00;;;;;;;;5058695;27;50915;-70
2022/08/13 02:54:16;;;;;;;;;8.33;8.00;;;;;;;;5059825;28;51234;-69
2022/08/13 02:56:42;;;;;;;;;7.67;7.67;;;;;;;;5073722;27;51882;-69
2022/08/13 02:59:10;;;;;;;;;7.50;7.00;;;;;;;;5074601;28;50983;-69
2022/08/13 03:01:36;;;;;;;;;7.33;6.33;;;;;;;;5074563;27;51057;-70
2022/08/13 03:04:01;;;;;;;;;7.00;7.00;;;;;;;;5074540;27;50857;-69
2022/08/13 03:06:27;;;;;;;;;8.33;8.33;;;;;;;;5074310;28;52967;-70
2022/08/13 03:08:52;;;;;;;;;7.00;7.00;;;;;;;;5075871;28;50896;-70
2022/08/13 03:11:18;;;;;;;;;6.67;6.67;;;;;;;;5077317;27;50986;-70
2022/08/13 03:13:47;;;;;;;;;6.33;6.00;;;;;;;;5074399;27;51271;-70
2022/08/13 03:16:17;;;;;;;;;6.50;6.50;;;;;;;;5075552;28;51867;-69
2022/08/13 03:18:42;;;;;;;;;7.00;7.00;;;;;;;;5074427;27;51016;-69
2022/08/13 03:21:07;;;;;;;;;6.33;6.33;;;;;;;;5074465;28;51064;-68
2022/08/13 03:23:32;;;;;;;;;7.00;6.00;;;;;;;;5073036;27;51189;-69
2022/08/13 03:25:58;;;;;;;;;5.00;5.00;;;;;;;;5073924;28;50911;-70
2022/08/13 03:28:23;;;;;;;;;6.00;6.00;;;;;;;;5074535;27;50866;-70
2022/08/13 03:30:48;;;;;;;;;8.00;7.33;;;;;;;;5074327;27;51687;-70
2022/08/13 03:33:14;;;;;;;;;6.33;6.33;;;;;;;;5074985;27;51091;-70
2022/08/13 03:35:39;;;;;;;;;8.00;8.00;;;;;;;;5077313;27;51840;-69
2022/08/13 03:38:06;;;;;;;;;8.00;7.33;;;;;;;;5077182;28;51060;-69
2022/08/13 03:43:16;;;;;;;;;9.75;9.25;;;;;;;;5073834;28;50887;-70
2022/08/13 03:45:42;;;;;;;;;8.00;8.00;;;;;;;;5071467;27;52221;-70
2022/08/13 03:48:07;;;;;;;;;8.00;8.00;;;;;;;;5072919;27;51045;-70
2022/08/13 03:50:33;;;;;;;;;7.50;7.50;;;;;;;;5073294;28;51392;-69
2022/08/13 03:53:02;;;;;;;;;8.33;8.33;;;;;;;;5073645;28;51378;-69
2022/08/13 03:55:30;;;;;;;;;7.00;7.00;;;;;;;;5073556;28;51560;-70
2022/08/13 03:57:55;;;;;;;;;5.67;5.67;;;;;;;;5072532;27;51165;-69
2022/08/13 04:00:22;;;;;;;;;7.00;6.67;;;;;;;;5074214;27;50999;-69
2022/08/13 04:02:47;;;;;;;;;7.00;7.00;;;;;;;;5073579;28;50859;-70
2022/08/13 04:05:17;;;;;;;;;5.33;5.33;;;;;;;;5062260;28;51199;-70
2022/08/13 04:07:43;;;;;;;;;9.00;7.00;;;;;;;;5073163;27;50998;-70
2022/08/13 04:10:09;;;;;;;;;7.25;7.25;;;;;;;;5071821;28;51220;-70
2022/08/13 04:12:35;;;;;;;;;6.33;6.33;;;;;;;;5073746;27;51093;-70
2022/08/13 04:15:01;;;;;;;;;6.33;6.33;;;;;;;;5072150;27;51067;-69
2022/08/13 04:17:26;;;;;;;;;7.67;6.00;;;;;;;;5074150;27;51130;-69
2022/08/13 04:19:51;;;;;;;;;7.00;6.67;;;;;;;;5073505;27;51349;-70
2022/08/13 04:22:17;;;;;;;;;7.00;6.67;;;;;;;;5073094;28;51310;-70
2022/08/13 04:24:42;;;;;;;;;6.00;6.00;;;;;;;;5071840;27;51845;-69
2022/08/13 04:27:07;;;;;;;;;8.33;8.33;;;;;;;;5074292;27;51067;-70
2022/08/13 04:29:33;;;;;;;;;7.00;7.00;;;;;;;;5072866;28;51204;-69
2022/08/13 04:32:01;;;;;;;;;6.33;6.33;;;;;;;;5073681;28;51249;-70
2022/08/13 04:34:28;;;;;;;;;5.00;5.00;;;;;;;;5072596;27;51083;-71
2022/08/13 04:36:53;;;;;;;;;8.00;8.00;;;;;;;;5072907;27;50940;-70
2022/08/13 04:39:19;;;;;;;;;7.33;6.67;;;;;;;;5071945;27;51222;-71
2022/08/13 04:41:44;;;;;;;;;8.00;6.00;;;;;;;;5072955;27;51386;-70
2022/08/13 04:44:10;;;;;;;;;7.00;7.00;;;;;;;;5073909;28;52209;-70
2022/08/13 04:46:35;;;;;;;;;7.00;6.67;;;;;;;;5074653;27;50869;-69
2022/08/13 04:49:00;;;;;;;;;6.00;5.25;;;;;;;;5073644;28;51055;-70
2022/08/13 04:51:25;;;;;;;;;6.33;6.00;;;;;;;;5074690;27;51299;-70
2022/08/13 04:53:51;;;;;;;;;7.00;7.00;;;;;;;;5071746;27;51226;-71
2022/08/13 04:56:16;;;;;;;;;5.33;5.33;;;;;;;;5072723;28;51099;-70
2022/08/13 04:58:41;;;;;;;;;5.00;5.00;;;;;;;;5072658;27;50945;-70
2022/08/13 05:01:11;;;;;;;;;8.00;8.00;;;;;;;;5065873;27;51178;-69
2022/08/13 05:03:39;;;;;;;;;7.00;6.25;;;;;;;;5071723;27;52098;-71
2022/08/13 05:06:04;;;;;;;;;7.67;7.00;;;;;;;;5065237;27;50968;-70
2022/08/13 05:08:31;;;;;;;;;7.33;7.33;;;;;;;;5069970;28;51089;-71
2022/08/13 05:10:57;;;;;;;;;7.00;7.00;;;;;;;;5072541;27;51217;-70
2022/08/13 05:13:27;;;;;;;;;8.00;7.33;;;;;;;;5071696;27;51725;-70
2022/08/13 05:15:54;;;;;;;;;8.00;7.67;;;;;;;;5071413;27;50958;-70
2022/08/13 05:18:20;;;;;;;;;6.00;5.67;;;;;;;;5071782;27;50945;-70
2022/08/13 05:20:45;;;;;;;;;7.00;7.00;;;;;;;;5072215;27;51358;-70
2022/08/13 05:23:12;;;;;;;;;7.00;6.67;;;;;;;;5072563;27;52028;-70
2022/08/13 05:25:38;;;;;;;;;8.00;8.00;;;;;;;;5073444;28;51092;-70
2022/08/13 05:28:03;;;;;;;;;9.00;8.00;;;;;;;;5070713;27;51203;-71
2022/08/13 05:30:28;;;;;;;;;8.25;8.25;;;;;;;;5071627;27;50970;-71
2022/08/13 05:32:57;;;;;;;;;8.00;8.00;;;;;;;;5071463;28;52320;-71
2022/08/13 05:35:23;;;;;;;;;8.25;8.00;;;;;;;;5071961;28;51036;-69
2022/08/13 05:37:49;;;;;;;;;8.00;8.00;;;;;;;;5069766;27;50870;-70
2022/08/13 05:40:14;;;;;;;;;11.00;11.00;;;;;;;;5071968;28;51284;-70
2022/08/13 05:42:39;;;;;;;;;9.00;9.00;;;;;;;;5071492;28;51401;-70
2022/08/13 05:45:08;;;;;;;;;10.00;9.25;;;;;;;;5071736;28;52179;-70
2022/08/13 05:47:33;;;;;;;;;7.00;7.00;;;;;;;;5070644;27;51140;-69
2022/08/13 05:49:59;;;;;;;;;8.75;8.25;;;;;;;;5073977;28;50962;-69
2022/08/13 05:52:30;;;;;;;;;8.33;8.33;;;;;;;;5075007;28;51072;-70
2022/08/13 05:54:56;;;;;;;;;8.67;8.33;;;;;;;;5075729;27;51080;-70
2022/08/13 05:57:21;;;;;;;;;4.33;4.33;;;;;;;;5062033;28;51084;-69
2022/08/13 06:05:15;;;;;;;;;6.00;6.00;;;;;;;;5074488;27;51137;-68
2022/08/13 06:07:41;;;;;;;;;5.00;5.00;;;;;;;;5074839;28;51079;-69
2022/08/13 06:10:07;;;;;;;;;5.33;5.33;;;;;;;;5074781;28;51282;-69
2022/08/13 06:12:32;;;;;;;;;6.00;6.00;;;;;;;;5073475;27;51984;-69
2022/08/13 06:14:58;;;;;;;;;5.33;5.33;;;;;;;;5073513;27;51357;-69
2022/08/13 06:17:23;;;;;;;;;5.00;5.00;;;;;;;;5074703;28;51122;-69
2022/08/13 06:19:49;;;;;;;;;6.67;5.67;;;;;;;;5073361;28;51286;-70
2022/08/13 06:22:15;;;;;;;;;7.33;7.00;;;;;;;;5072756;27;51265;-68
2022/08/13 06:24:40;;;;;;;;;6.33;6.33;;;;;;;;5074476;28;51059;-69
2022/08/13 06:27:06;;;;;;;;;5.33;5.33;;;;;;;;5074943;28;51008;-71
2022/08/13 06:29:35;;;;;;;;;6.33;6.33;;;;;;;;5074605;28;51082;-69
2022/08/13 06:32:03;;;;;;;;;5.33;5.00;;;;;;;;5075386;27;52296;-68
2022/08/13 06:34:31;;;;;;;;;5.00;5.00;;;;;;;;5073646;27;51202;-69
2022/08/13 06:36:57;;;;;;;;;6.67;6.33;;;;;;;;5074396;28;50999;-68
2022/08/13 06:39:22;;;;;;;;;6.33;6.33;;;;;;;;5072847;28;50945;-69
2022/08/13 06:41:48;;;;;;;;;7.00;7.00;;;;;;;;5072951;28;51042;-69
2022/08/13 06:44:13;;;;;;;;;6.33;6.33;;;;;;;;5073678;27;50987;-69
2022/08/13 06:46:39;;;;;;;;;6.33;5.67;;;;;;;;5074533;28;50999;-68
2022/08/13 06:49:05;;;;;;;;;5.33;5.33;;;;;;;;5074381;28;51378;-69
2022/08/13 06:51:31;;;;;;;;;7.00;6.33;;;;;;;;5072917;27;52552;-68
2022/08/13 06:53:56;;;;;;;;;5.00;5.00;;;;;;;;5063180;27;51212;-70
2022/08/13 06:56:26;;;;;;;;;6.00;5.33;;;;;;;;5073970;28;51068;-68
2022/08/13 06:58:53;;;;;;;;;6.00;6.00;;;;;;;;5074065;28;52105;-70
2022/08/13 07:01:19;;;;;;;;;7.00;6.33;;;;;;;;5071888;27;50980;-69
2022/08/13 07:03:45;;;;;;;;;5.00;5.00;;;;;;;;5074489;28;50886;-70
2022/08/13 07:06:16;;;;;;;;;6.00;6.00;;;;;;;;5073399;28;51191;-68
2022/08/13 07:08:41;;;;;;;;;5.00;5.00;;;;;;;;5072755;28;51110;-70
2022/08/13 07:11:22;;;;;;;;;6.00;6.00;;;;;;;;5072252;27;51450;-69
2022/08/13 07:13:49;;;;;;;;;5.33;5.33;;;;;;;;5073081;27;51015;-69
2022/08/13 07:16:16;;;;;;;;;6.33;6.00;;;;;;;;5072463;28;50918;-69
2022/08/13 07:18:42;;;;;;;;;4.00;4.00;;;;;;;;5074055;28;51397;-69
2022/08/13 07:21:11;;;;;;;;;6.00;6.00;;;;;;;;5072152;28;52123;-69
2022/08/13 07:23:36;;;;;;;;;5.00;5.00;;;;;;;;5072692;27;51054;-67
2022/08/13 07:26:02;;;;;;;;;5.75;5.75;;;;;;;;5073801;27;51200;-68
2022/08/13 07:28:29;;;;;;;;;5.67;5.67;;;;;;;;5073795;28;51182;-68
2022/08/13 07:30:55;;;;;;;;;6.00;6.00;;;;;;;;5073157;27;51021;-68
2022/08/13 07:33:21;;;;;;;;;6.33;6.33;;;;;;;;5072468;27;51155;-69
2022/08/13 07:35:46;;;;;;;;;6.00;5.00;;;;;;;;5073320;28;50969;-68
2022/08/13 07:38:13;;;;;;;;;6.67;6.00;;;;;;;;5074215;28;50835;-68
2022/08/13 07:40:38;;;;;;;;;5.33;5.33;;;;;;;;5070253;27;52199;-68
2022/08/13 07:43:04;;;;;;;;;6.67;6.00;;;;;;;;5073161;28;50975;-70
2022/08/13 07:45:29;;;;;;;;;6.00;6.00;;;;;;;;5071627;28;50986;-67
2022/08/13 07:47:56;;;;;;;;;7.33;7.33;;;;;;;;5073381;28;51332;-68
2022/08/13 07:50:22;;;;;;;;;5.33;5.33;;;;;;;;5071492;27;51977;-69
2022/08/13 07:52:55;;;;;;;;;6.00;6.00;;;;;;;;5073206;28;51075;-69
2022/08/13 07:55:22;;;;;;;;;5.67;5.33;;;;;;;;5073274;28;50992;-69
2022/08/13 07:57:48;;;;;;;;;6.00;5.00;;;;;;;;5073265;28;51200;-69
2022/08/13 08:00:25;;;;;;;;;6.00;6.00;;;;;;;;5072720;28;52191;-69
2022/08/13 08:03:01;;;;;;;;;6.00;6.00;;;;;;;;5060943;27;51263;-67
2022/08/13 08:05:28;;;;;;;;;5.00;5.00;;;;;;;;5071934;28;50852;-68
2022/08/13 08:07:53;;;;;;;;;5.00;5.00;;;;;;;;5070989;28;50882;-68
2022/08/13 08:10:20;;;;;;;;;7.00;7.00;;;;;;;;5072875;28;51027;-68
2022/08/13 08:12:45;;;;;;;;;6.33;5.67;;;;;;;;5072082;28;50965;-68
2022/08/13 08:15:11;;;;;;;;;6.33;5.67;;;;;;;;5071434;27;50862;-69
2022/08/13 08:17:36;;;;;;;;;4.67;4.67;;;;;;;;5073120;28;51183;-67
2022/08/13 08:20:02;;;;;;;;;5.67;5.67;;;;;;;;5072334;27;51226;-69
2022/08/13 08:22:29;;;;;;;;;5.00;5.00;;;;;;;;5072790;27;51111;-68
2022/08/13 08:24:54;;;;;;;;;4.67;4.67;;;;;;;;5072699;27;51252;-69
2022/08/13 08:27:24;;;;;;;;;5.33;5.33;;;;;;;;5070762;27;51967;-68
2022/08/13 08:29:49;;;;;;;;;5.00;4.67;;;;;;;;5071874;27;51300;-67
2022/08/13 08:32:16;;;;;;;;;4.75;4.75;;;;;;;;5072212;28;51025;-66
2022/08/13 08:34:42;;;;;;;;;6.00;6.00;;;;;;;;5072722;28;51159;-65
2022/08/13 08:37:08;;;;;;;;;3.67;3.67;;;;;;;;5071384;28;51189;-65
2022/08/13 08:45:08;;;;;;;;;2.67;2.67;;;;;;;;5072283;28;51158;-65
2022/08/13 08:47:37;;;;;;;;;5.00;4.67;;;;;;;;5071959;28;51292;-65
2022/08/13 08:50:02;;;;;;;;;4.00;4.00;;;;;;;;5069715;27;52013;-64
2022/08/13 08:53:19;;;;;;;;;4.00;4.00;;;;;;;;5071667;28;51034;-65
2022/08/13 08:55:13;;;;;;;;;3.00;3.00;;;;;;;;5072094;27;51071;-65
2022/08/13 08:57:39;;;;;;;;;4.00;4.00;;;;;;;;5072201;27;51308;-66
2022/08/13 09:00:05;;;;;;;;;4.67;4.67;;;;;;;;5058399;27;51271;-67
2022/08/13 09:02:33;;;;;;;;;3.00;3.00;;;;;;;;5069201;27;51161;-68
2022/08/13 09:04:59;;;;;;;;;5.00;5.00;;;;;;;;5067775;27;50858;-66
2022/08/13 09:07:25;;;;;;;;;4.33;4.33;;;;;;;;5066462;27;50861;-68
2022/08/13 09:09:53;;;;;;;;;4.00;4.00;;;;;;;;5058552;27;51962;-67
2022/08/13 09:12:23;;;;;;;;;3.33;3.33;;;;;;;;5053504;27;51177;-67
2022/08/13 09:14:49;;;;;;;;;5.67;5.67;;;;;;;;5063753;27;51283;-67
2022/08/13 09:17:15;;;;;;;;;2.67;2.67;;;;;;;;5072192;27;50962;-67
2022/08/13 09:19:41;;;;;;;;;5.00;5.00;;;;;;;;5070698;27;52405;-67
2022/08/13 09:22:06;;;;;;;;;3.33;3.33;;;;;;;;5071613;27;51041;-67
2022/08/13 09:24:31;;;;;;;;;3.67;3.67;;;;;;;;5062181;27;51292;-65
2022/08/13 09:26:57;;;;;;;;;4.00;4.00;;;;;;;;5073752;28;51206;-65
2022/08/13 09:29:23;;;;;;;;;4.00;4.00;;;;;;;;5074141;27;51782;-65
2022/08/13 09:31:49;;;;;;;;;4.00;4.00;;;;;;;;5074755;28;51132;-65
2022/08/13 09:34:17;;;;;;;;;4.00;4.00;;;;;;;;5066646;27;50997;-65
2022/08/13 09:36:44;;;;;;;;;3.00;3.00;;;;;;;;5072548;28;51205;-66
2022/08/13 09:39:19;;;;;;;;;4.75;4.75;;;;;;;;5068374;28;52129;-65
2022/08/13 09:41:48;;;;;;;;;4.25;4.25;;;;;;;;5070547;27;50913;-64
2022/08/13 09:44:15;;;;;;;;;4.33;4.33;;;;;;;;5073280;27;51230;-66
2022/08/13 09:46:42;;;;;;;;;4.75;4.00;;;;;;;;5073434;27;50932;-65
2022/08/13 09:49:08;;;;;;;;;3.00;3.00;;;;;;;;5073126;28;51035;-64
2022/08/13 09:51:35;;;;;;;;;3.00;3.00;;;;;;;;5072753;27;51048;-66
2022/08/13 09:54:05;;;;;;;;;4.25;4.00;;;;;;;;5065252;27;51174;-64
2022/08/13 09:56:36;;;;;;;;;6.50;6.50;;;;;;;;5063567;28;51376;-64
2022/08/13 09:59:01;;;;;;;;;6.50;6.00;;;;;;;;5073888;28;51943;-67
2022/08/13 10:01:26;;;;;;;;;5.25;5.25;;;;;;;;5065783;27;51081;-65
2022/08/13 10:03:52;;;;;;;;;5.00;3.00;;;;;;;;5068740;27;50983;-64
2022/08/13 10:06:20;;;;;;;;;3.67;3.67;;;;;;;;5072153;27;51158;-65
2022/08/13 10:08:46;;;;;;;;;1.33;1.33;;;;;;;;5073732;27;52409;-64
2022/08/13 10:11:11;;;;;;;;;4.33;4.33;;;;;;;;5073987;28;50933;-65
2022/08/13 10:13:37;;;;;;;;;4.00;3.67;;;;;;;;5063052;28;51143;-65
2022/08/13 10:16:02;;;;;;;;;4.00;4.00;;;;;;;;5070958;27;51196;-64
2022/08/13 10:18:31;;;;;;;;;2.00;2.00;;;;;;;;5065547;28;51201;-64
2022/08/13 10:20:56;;;;;;;;;3.00;3.00;;;;;;;;5067991;27;51018;-63
2022/08/13 10:23:22;;;;;;;;;4.00;4.00;;;;;;;;5067894;27;51553;-63
2022/08/13 10:25:49;;;;;;;;;4.00;4.00;;;;;;;;5063330;28;51458;-64
2022/08/13 10:28:16;;;;;;;;;4.00;3.00;;;;;;;;5066091;28;52131;-64
2022/08/13 10:30:42;;;;;;;;;3.67;3.67;;;;;;;;5065203;28;51092;-63
2022/08/13 10:33:08;;;;;;;;;4.67;3.67;;;;;;;;5064609;28;50980;-63
2022/08/13 10:35:33;;;;;;;;;3.67;3.00;;;;;;;;5068346;28;50874;-63
2022/08/13 10:37:59;;;;;;;;;5.33;5.33;;;;;;;;5064788;28;52361;-62
2022/08/13 10:40:25;;;;;;;;;4.00;4.00;;;;;;;;5062138;28;50980;-62
2022/08/13 10:42:52;;;;;;;;;5.67;5.67;;;;;;;;5064895;27;51130;-60
2022/08/13 10:45:18;;;;;;;;;4.75;4.75;;;;;;;;5065765;27;51013;-60
2022/08/13 10:47:47;;;;;;;;;3.00;3.00;;;;;;;;5062647;27;51065;-59
2022/08/13 10:50:14;;;;;;;;;4.00;4.00;;;;;;;;5072126;27;51119;-60
2022/08/13 10:52:40;;;;;;;;;4.00;4.00;;;;;;;;5068851;27;51106;-60
2022/08/13 10:55:08;;;;;;;;;4.33;4.33;;;;;;;;5066982;27;51156;-61
2022/08/13 10:57:33;;;;;;;;;5.50;5.00;;;;;;;;5061363;27;52220;-63
2022/08/13 10:59:58;;;;;;;;;5.00;5.00;;;;;;;;5059675;27;50987;-61
2022/08/13 11:02:23;;;;;;;;;2.00;2.00;;;;;;;;5065195;27;51358;-61
2022/08/13 11:04:49;;;;;;;;;4.00;3.00;;;;;;;;5060482;27;51191;-60
2022/08/13 11:07:14;;;;;;;;;5.00;4.75;;;;;;;;5059276;27;52053;-60
2022/08/13 11:09:41;;;;;;;;;6.00;6.00;;;;;;;;5058719;27;51273;-61
2022/08/13 11:12:07;;;;;;;;;5.00;5.00;;;;;;;;5063281;27;51356;-60
2022/08/13 11:14:32;;;;;;;;;4.00;4.00;;;;;;;;5060739;27;51373;-61
2022/08/13 11:16:58;;;;;;;;;2.00;2.00;;;;;;;;5061065;28;52394;-59
2022/08/13 11:19:26;;;;;;;;;3.00;2.00;;;;;;;;5072519;28;51046;-57
2022/08/13 11:21:52;;;;;;;;;4.00;4.00;;;;;;;;5072347;28;51154;-60
2022/08/13 11:24:18;;;;;;;;;5.33;5.33;;;;;;;;5068843;27;51346;-59
2022/08/13 11:26:45;;;;;;;;;4.00;4.00;;;;;;;;5069846;28;51042;-59
2022/08/13 11:29:10;;;;;;;;;5.00;5.00;;;;;;;;5072040;28;51028;-59
2022/08/13 11:31:36;;;;;;;;;4.67;4.33;;;;;;;;5072835;28;51110;-59
2022/08/13 11:34:01;;;;;;;;;6.00;5.00;;;;;;;;5072124;28;51142;-60
2022/08/13 11:36:26;;;;;;;;;3.00;3.00;;;;;;;;5058639;28;52076;-59
2022/08/13 11:38:51;;;;;;;;;2.67;2.67;;;;;;;;5072035;28;50840;-58
2022/08/13 11:41:17;;;;;;;;;4.67;4.67;;;;;;;;5070606;28;50999;-59
2022/08/13 11:43:42;;;;;;;;;5.67;5.00;;;;;;;;5072337;28;50854;-58
2022/08/13 11:46:07;;;;;;;;;4.00;4.00;;;;;;;;5070914;27;51753;-59
2022/08/13 11:48:32;;;;;;;;;4.33;4.00;;;;;;;;5069401;28;50942;-59
2022/08/13 11:50:58;;;;;;;;;3.67;3.33;;;;;;;;5063408;28;51049;-59
2022/08/13 11:53:23;;;;;;;;;3.33;3.33;;;;;;;;5068791;28;50978;-59
2022/08/13 11:55:49;;;;;;;;;3.00;3.00;;;;;;;;5068675;28;51910;-59
2022/08/13 11:58:15;;;;;;;;;4.00;4.00;;;;;;;;5071531;27;51192;-59
2022/08/13 12:00:42;;;;;;;;;3.00;2.67;;;;;;;;5063720;27;50962;-57
2022/08/13 12:03:07;;;;;;;;;3.00;3.00;;;;;;;;5072525;27;50976;-59
2022/08/13 12:05:33;;;;;;;;;3.00;3.00;;;;;;;;5061371;28;51048;-62
2022/08/13 12:07:58;;;;;;;;;3.67;3.67;;;;;;;;5071662;27;50998;-59
2022/08/13 12:10:24;;;;;;;;;4.00;4.00;;;;;;;;5070835;27;51095;-59
2022/08/13 12:12:49;;;;;;;;;2.67;2.00;;;;;;;;5071967;28;51159;-59
2022/08/13 12:15:15;;;;;;;;;3.33;3.33;;;;;;;;5071455;28;52664;-59
2022/08/13 12:17:42;;;;;;;;;2.67;2.67;;;;;;;;5069931;28;51008;-59
2022/08/13 12:20:08;;;;;;;;;2.33;2.33;;;;;;;;5071100;28;50929;-60
2022/08/13 12:22:34;;;;;;;;;1.33;1.33;;;;;;;;5068598;28;51180;-60
2022/08/13 12:24:59;;;;;;;;;3.00;3.00;;;;;;;;5071525;28;50930;-59
2022/08/13 12:27:24;;;;;;;;;1.00;1.00;;;;;;;;5072147;28;51155;-58
2022/08/13 12:29:49;;;;;;;;;3.00;3.00;;;;;;;;5071672;27;51236;-60
2022/08/13 12:32:15;;;;;;;;;3.00;3.00;;;;;;;;5062132;27;51088;-59
2022/08/13 12:34:40;;;;;;;;;4.00;3.00;;;;;;;;5061768;28;52018;-58
2022/08/13 12:37:05;;;;;;;;;3.00;3.00;;;;;;;;5067857;27;50868;-58
2022/08/13 12:39:31;;;;;;;;;3.00;3.00;;;;;;;;5064505;27;50864;-58
2022/08/13 12:41:56;;;;;;;;;2.67;2.67;;;;;;;;5060382;27;53274;-61
2022/08/13 12:44:21;;;;;;;;;3.00;3.00;;;;;;;;5071273;28;51890;-60
2022/08/13 12:46:46;;;;;;;;;4.00;3.67;;;;;;;;5061603;27;51145;-59
2022/08/13 12:49:11;;;;;;;;;3.00;2.00;;;;;;;;5069985;28;51362;-60
2022/08/13 12:51:37;;;;;;;;;3.00;2.00;;;;;;;;5065276;27;51146;-59
2022/08/13 12:54:02;;;;;;;;;3.33;3.33;;;;;;;;5067744;27;51193;-59
2022/08/13 12:56:27;;;;;;;;;2.00;2.00;;;;;;;;5071416;28;50951;-62
2022/08/13 12:58:52;;;;;;;;;1.67;1.67;;;;;;;;5071892;27;51111;-61
2022/08/13 13:01:18;;;;;;;;;3.67;3.67;;;;;;;;5075039;27;51002;-61
2022/08/13 13:03:43;;;;;;;;;3.00;2.67;;;;;;;;5068050;27;51944;-61
2022/08/13 13:06:08;;;;;;;;;2.67;2.67;;;;;;;;5071149;27;51195;-61
2022/08/13 13:08:33;;;;;;;;;1.33;1.33;;;;;;;;5074003;28;51440;-63
2022/08/13 13:11:02;;;;;;;;;3.00;3.00;;;;;;;;5074959;28;51067;-63
2022/08/13 13:13:27;;;;;;;;;3.00;3.00;;;;;;;;5070648;27;51107;-62
2022/08/13 13:15:53;;;;;;;;;3.67;3.67;;;;;;;;5073722;27;51167;-63
2022/08/13 13:18:19;;;;;;;;;1.33;1.33;;;;;;;;5068854;27;51048;-62
2022/08/13 13:20:45;;;;;;;;;1.67;1.00;;;;;;;;5062261;27;51452;-62
2022/08/13 13:23:12;;;;;;;;;3.67;3.67;;;;;;;;5066243;27;50933;-63
2022/08/13 13:25:40;;;;;;;;;3.67;3.67;;;;;;;;5063446;28;51177;-63
2022/08/13 13:28:06;;;;;;;;;2.67;2.67;;;;;;;;5074718;28;51116;-63
2022/08/13 13:30:32;;;;;;;;;3.00;3.00;;;;;;;;5074422;27;50883;-63
2022/08/13 13:32:58;;;;;;;;;2.00;2.00;;;;;;;;5067791;27;52435;-61
2022/08/13 13:35:23;;;;;;;;;2.00;2.00;;;;;;;;5064605;28;50926;-61
2022/08/13 13:37:49;;;;;;;;;2.33;2.00;;;;;;;;5072644;28;51120;-61
2022/08/13 13:40:14;;;;;;;;;2.00;2.00;;;;;;;;5064849;27;51253;-60
2022/08/13 13:42:41;;;;;;;;;2.00;2.00;;;;;;;;5062445;27;51058;-60
2022/08/13 13:45:06;;;;;;;;;1.00;1.00;;;;;;;;5070333;27;51085;-61
2022/08/13 13:47:32;;;;;;;;;2.00;2.00;;;;;;;;5074131;27;51112;-61
2022/08/13 13:49:57;;;;;;;;;2.00;2.00;;;;;;;;5067305;27;51078;-62
2022/08/13 13:52:22;;;;;;;;;2.33;2.33;;;;;;;;5059735;28;51236;-60
2022/08/13 13:54:49;;;;;;;;;1.00;1.00;;;;;;;;5070943;28;51223;-60
2022/08/13 13:57:15;;;;;;;;;2.00;2.00;;;;;;;;5070184;27;51149;-59
2022/08/13 13:59:43;;;;;;;;;2.00;2.00;;;;;;;;5073988;27;51033;-62
2022/08/13 14:02:08;;;;;;;;;3.33;3.00;;;;;;;;5067803;27;51119;-59
2022/08/13 14:04:33;;;;;;;;;3.00;3.00;;;;;;;;5067552;28;51099;-60
2022/08/13 14:07:03;;;;;;;;;2.00;2.00;;;;;;;;5073565;27;51243;-60
2022/08/13 14:09:29;;;;;;;;;1.67;1.67;;;;;;;;5071588;28;51044;-60
2022/08/13 14:11:55;;;;;;;;;2.00;1.67;;;;;;;;5071607;28;51891;-60
2022/08/13 14:14:20;;;;;;;;;2.33;2.33;;;;;;;;5069022;27;51253;-60
2022/08/13 14:16:46;;;;;;;;;1.00;1.00;;;;;;;;5073429;27;51099;-60
2022/08/13 14:19:11;;;;;;;;;2.33;2.33;;;;;;;;5066787;28;51099;-60
2022/08/13 14:21:38;;;;;;;;;2.00;2.00;;;;;;;;5067433;28;51006;-60
2022/08/13 14:24:04;;;;;;;;;2.67;2.67;;;;;;;;5074338;27;50863;-61
2022/08/13 14:26:30;;;;;;;;;2.67;2.67;;;;;;;;5066041;27;51149;-61
2022/08/13 14:28:56;;;;;;;;;3.00;3.00;;;;;;;;5070288;27;51003;-59
2022/08/13 14:31:21;;;;;;;;;3.00;3.00;;;;;;;;5068869;27;51000;-61
2022/08/13 14:33:47;;;;;;;;;2.00;2.00;;;;;;;;5060613;28;51154;-60
2022/08/13 14:36:13;;;;;;;;;3.00;3.00;;;;;;;;5070582;27;51207;-61
2022/08/13 14:38:39;;;;;;;;;2.33;2.33;;;;;;;;5068043;27;51387;-62
2022/08/13 14:41:04;;;;;;;;;2.00;2.00;;;;;;;;5056898;27;52162;-61
2022/08/13 14:43:30;;;;;;;;;1.00;1.00;;;;;;;;5068696;28;51142;-62
2022/08/13 14:45:56;;;;;;;;;3.33;2.00;;;;;;;;5066778;28;51038;-63
2022/08/13 14:48:23;;;;;;;;;2.00;2.00;;;;;;;;5067038;27;50896;-61
2022/08/13 14:50:50;;;;;;;;;1.00;1.00;;;;;;;;5065394;27;51234;-60
2022/08/13 14:53:16;;;;;;;;;3.00;2.00;;;;;;;;5070358;27;51204;-62
2022/08/13 14:55:42;;;;;;;;;5.00;5.00;;;;;;;;5063840;27;51131;-62